Airfield :
LOGIN :

Register | Disclaimer

   EN    FR    IT 

 










Legend :    VFR   Marginal VFR   IFR   Intensive IFR   Very Intensive IFR
Visi :
Ceiling :
>= 8 km
>= 3000ft
5 to 8 km
1000 to 3000 ft
1500m to 5 km
500 to 1000 ft
800 to 1500m
200 to 500 ft
< 800m
< 200 ft
Symbols :   Thunderstorms  Fog  Heavy snow  Heavy precipitations  Wind > 20 kt
SIGMETs :     Misc.  Thunderstorms  Icing  Turbulence  Mountain Waves  Volcanic Ashes






- Airport Elevation : 375 ft
- IATA code : MST


EHBK - Maastricht Aachen

CURRENT METAR :
  • 172325Z AUTO 22012KT 9999 NCD 04/02 Q1020

EXPIRED METARs :
  • 172255Z AUTO 22010KT 9999 BKN020 OVC028 05/02 Q1020
  • 172225Z AUTO 22009KT 9999 NCD 05/02 Q1020
  • 172155Z AUTO 23011KT 200V260 9999 SCT021 BKN024 05/03 Q1020 NOSIG
  • 172125Z AUTO 23011KT 9999 OVC025 06/03 Q1019 NOSIG
  • 172055Z AUTO 23010KT 200V260 9999 SCT027 06/03 Q1019 NOSIG

TAF COR TAF EHBK
Valid from the 18 at 00:00 until the 19 at 06:00 UTC


172327Z 1800/1906 24014KT 9999 BKN030
PROB30
TEMPO 1802/1812 7000 -SHRA BKN008 FEW015CB
BECMG 1811/1814 28010KT
PROB30
TEMPO 1818/1906 4000 SHRA SHRAGS BKN005 SCT018CB
BECMG 1903/1906 31008KT



MET'MAP, your aeronautical weather chart ! - Copyright ORBIFLY December 2007 - Disclaimer

ORBIFLY MET'MAP TEAM :

Programming & Development : Alexandra Zaïnal
Concept & original design : Baudouin d'Aumeries
Assistance for programming : Marc-Olivier Méhu
Technical & hardware support : Manuel Goepfert

Contact : metmap@orbifly.com




SOURCES & CREDITS :

   NOAA